sensor_id;sensor_type;location;lat;lon;timestamp;P1;durP1;ratioP1;P2;durP2;ratioP2
37449;SDS011;23309;52.582;13.406;2024-01-07T01:11:26;2.45;;;1.95;;
37449;SDS011;23309;52.582;13.406;2024-01-07T01:13:51;3.10;;;2.13;;
37449;SDS011;23309;52.582;13.406;2024-01-07T01:16:17;4.68;;;2.47;;
37449;SDS011;23309;52.582;13.406;2024-01-07T01:18:43;4.13;;;2.37;;
37449;SDS011;23309;52.582;13.406;2024-01-07T01:21:09;2.83;;;2.23;;
37449;SDS011;23309;52.582;13.406;2024-01-07T01:23:34;4.07;;;2.17;;
37449;SDS011;23309;52.582;13.406;2024-01-07T01:26:00;3.20;;;2.17;;
37449;SDS011;23309;52.582;13.406;2024-01-07T01:28:26;4.17;;;2.37;;
37449;SDS011;23309;52.582;13.406;2024-01-07T01:30:51;3.27;;;1.93;;
37449;SDS011;23309;52.582;13.406;2024-01-07T01:33:17;2.90;;;2.10;;
37449;SDS011;23309;52.582;13.406;2024-01-07T01:35:42;3.43;;;2.30;;
37449;SDS011;23309;52.582;13.406;2024-01-07T01:38:08;3.53;;;2.70;;
37449;SDS011;23309;52.582;13.406;2024-01-07T01:40:34;3.73;;;2.07;;
37449;SDS011;23309;52.582;13.406;2024-01-07T01:42:59;3.20;;;1.90;;
37449;SDS011;23309;52.582;13.406;2024-01-07T01:45:25;4.70;;;2.43;;
37449;SDS011;23309;52.582;13.406;2024-01-07T01:47:50;3.70;;;2.43;;
37449;SDS011;23309;52.582;13.406;2024-01-07T01:50:16;3.50;;;2.50;;
37449;SDS011;23309;52.582;13.406;2024-01-07T01:52:42;3.63;;;2.55;;
37449;SDS011;23309;52.582;13.406;2024-01-07T01:55:09;3.33;;;2.15;;
37449;SDS011;23309;52.582;13.406;2024-01-07T01:57:35;3.43;;;2.40;;
37449;SDS011;23309;52.582;13.406;2024-01-07T02:00:02;4.78;;;2.42;;
37449;SDS011;23309;52.582;13.406;2024-01-07T02:02:30;3.83;;;2.40;;
37449;SDS011;23309;52.582;13.406;2024-01-07T02:04:56;4.28;;;2.47;;
37449;SDS011;23309;52.582;13.406;2024-01-07T02:07:24;3.42;;;2.45;;
37449;SDS011;23309;52.582;13.406;2024-01-07T02:09:49;3.08;;;2.20;;
37449;SDS011;23309;52.582;13.406;2024-01-07T02:12:15;4.60;;;2.67;;
37449;SDS011;23309;52.582;13.406;2024-01-07T02:14:40;5.40;;;2.80;;
37449;SDS011;23309;52.582;13.406;2024-01-07T02:17:06;2.47;;;1.90;;
37449;SDS011;23309;52.582;13.406;2024-01-07T02:19:32;3.67;;;2.67;;
37449;SDS011;23309;52.582;13.406;2024-01-07T02:21:58;5.53;;;2.50;;
37449;SDS011;23309;52.582;13.406;2024-01-07T02:24:23;6.20;;;2.30;;
37449;SDS011;23309;52.582;13.406;2024-01-07T02:26:49;3.97;;;2.40;;
37449;SDS011;23309;52.582;13.406;2024-01-07T02:29:15;3.87;;;2.27;;
37449;SDS011;23309;52.582;13.406;2024-01-07T02:31:40;9.20;;;2.60;;
37449;SDS011;23309;52.582;13.406;2024-01-07T02:34:06;2.63;;;2.20;;
37449;SDS011;23309;52.582;13.406;2024-01-07T02:36:33;5.20;;;2.25;;
37449;SDS011;23309;52.582;13.406;2024-01-07T02:38:59;6.00;;;2.30;;
37449;SDS011;23309;52.582;13.406;2024-01-07T02:41:24;3.50;;;2.30;;
37449;SDS011;23309;52.582;13.406;2024-01-07T02:43:51;3.40;;;2.30;;
37449;SDS011;23309;52.582;13.406;2024-01-07T02:46:17;5.40;;;2.20;;
37449;SDS011;23309;52.582;13.406;2024-01-07T02:48:42;3.43;;;2.10;;
37449;SDS011;23309;52.582;13.406;2024-01-07T02:51:08;4.60;;;2.17;;
37449;SDS011;23309;52.582;13.406;2024-01-07T02:53:34;3.83;;;2.50;;
37449;SDS011;23309;52.582;13.406;2024-01-07T02:55:59;3.87;;;2.00;;
37449;SDS011;23309;52.582;13.406;2024-01-07T02:58:25;2.23;;;2.03;;
37449;SDS011;23309;52.582;13.406;2024-01-07T03:00:51;2.83;;;1.60;;
37449;SDS011;23309;52.582;13.406;2024-01-07T03:03:16;2.17;;;1.73;;
37449;SDS011;23309;52.582;13.406;2024-01-07T03:05:42;2.73;;;1.83;;
37449;SDS011;23309;52.582;13.406;2024-01-07T03:08:07;2.00;;;1.60;;
37449;SDS011;23309;52.582;13.406;2024-01-07T03:10:33;2.37;;;1.80;;
37449;SDS011;23309;52.582;13.406;2024-01-07T03:13:00;4.13;;;1.83;;
37449;SDS011;23309;52.582;13.406;2024-01-07T03:15:25;1.80;;;1.60;;
37449;SDS011;23309;52.582;13.406;2024-01-07T03:17:51;2.67;;;1.83;;
37449;SDS011;23309;52.582;13.406;2024-01-07T03:20:16;2.63;;;1.90;;
37449;SDS011;23309;52.582;13.406;2024-01-07T03:22:42;7.43;;;2.03;;
37449;SDS011;23309;52.582;13.406;2024-01-07T03:25:07;3.40;;;1.73;;
37449;SDS011;23309;52.582;13.406;2024-01-07T03:27:33;2.53;;;1.73;;
37449;SDS011;23309;52.582;13.406;2024-01-07T03:29:59;3.63;;;1.60;;
37449;SDS011;23309;52.582;13.406;2024-01-07T03:32:25;3.05;;;1.88;;
37449;SDS011;23309;52.582;13.406;2024-01-07T03:34:51;3.63;;;2.00;;
37449;SDS011;23309;52.582;13.406;2024-01-07T03:37:18;2.60;;;1.50;;
37449;SDS011;23309;52.582;13.406;2024-01-07T03:39:44;2.10;;;1.50;;
37449;SDS011;23309;52.582;13.406;2024-01-07T03:42:11;2.20;;;1.80;;
37449;SDS011;23309;52.582;13.406;2024-01-07T03:44:37;2.03;;;1.45;;
37449;SDS011;23309;52.582;13.406;2024-01-07T03:47:04;2.75;;;1.58;;
37449;SDS011;23309;52.582;13.406;2024-01-07T03:49:30;2.75;;;1.60;;
37449;SDS011;23309;52.582;13.406;2024-01-07T03:51:56;2.47;;;1.80;;
37449;SDS011;23309;52.582;13.406;2024-01-07T03:54:21;2.07;;;1.87;;
37449;SDS011;23309;52.582;13.406;2024-01-07T03:56:47;5.07;;;1.60;;
37449;SDS011;23309;52.582;13.406;2024-01-07T03:59:13;3.07;;;1.90;;
37449;SDS011;23309;52.582;13.406;2024-01-07T04:01:38;2.80;;;1.80;;
37449;SDS011;23309;52.582;13.406;2024-01-07T04:04:04;5.60;;;2.10;;
37449;SDS011;23309;52.582;13.406;2024-01-07T04:06:29;2.60;;;1.80;;
37449;SDS011;23309;52.582;13.406;2024-01-07T04:08:55;3.13;;;1.80;;
37449;SDS011;23309;52.582;13.406;2024-01-07T04:11:21;2.57;;;1.70;;
37449;SDS011;23309;52.582;13.406;2024-01-07T04:13:47;4.10;;;1.92;;
37449;SDS011;23309;52.582;13.406;2024-01-07T04:16:17;2.23;;;1.60;;
37449;SDS011;23309;52.582;13.406;2024-01-07T04:18:44;3.88;;;2.10;;
37449;SDS011;23309;52.582;13.406;2024-01-07T04:21:10;2.45;;;1.98;;
37449;SDS011;23309;52.582;13.406;2024-01-07T04:23:36;1.70;;;1.50;;
37449;SDS011;23309;52.582;13.406;2024-01-07T04:26:01;2.63;;;1.90;;
37449;SDS011;23309;52.582;13.406;2024-01-07T04:28:27;3.27;;;1.83;;
37449;SDS011;23309;52.582;13.406;2024-01-07T04:30:52;2.60;;;1.70;;
37449;SDS011;23309;52.582;13.406;2024-01-07T04:33:18;5.10;;;2.00;;
37449;SDS011;23309;52.582;13.406;2024-01-07T04:35:45;2.17;;;1.60;;
37449;SDS011;23309;52.582;13.406;2024-01-07T04:38:10;1.83;;;1.50;;
37449;SDS011;23309;52.582;13.406;2024-01-07T04:40:36;2.30;;;1.77;;
37449;SDS011;23309;52.582;13.406;2024-01-07T04:43:03;3.15;;;1.98;;
37449;SDS011;23309;52.582;13.406;2024-01-07T04:45:29;3.42;;;1.90;;
37449;SDS011;23309;52.582;13.406;2024-01-07T04:47:55;3.10;;;1.60;;
37449;SDS011;23309;52.582;13.406;2024-01-07T04:50:21;2.07;;;1.60;;
37449;SDS011;23309;52.582;13.406;2024-01-07T04:52:48;2.80;;;1.70;;
37449;SDS011;23309;52.582;13.406;2024-01-07T04:55:13;2.17;;;1.80;;
37449;SDS011;23309;52.582;13.406;2024-01-07T04:57:39;3.77;;;2.10;;
37449;SDS011;23309;52.582;13.406;2024-01-07T05:00:05;1.90;;;1.70;;
37449;SDS011;23309;52.582;13.406;2024-01-07T05:02:31;2.88;;;2.20;;
37449;SDS011;23309;52.582;13.406;2024-01-07T05:04:57;3.47;;;2.10;;
37449;SDS011;23309;52.582;13.406;2024-01-07T05:07:23;3.03;;;1.92;;
37449;SDS011;23309;52.582;13.406;2024-01-07T05:09:49;3.10;;;1.93;;
37449;SDS011;23309;52.582;13.406;2024-01-07T05:12:15;2.17;;;1.83;;
37449;SDS011;23309;52.582;13.406;2024-01-07T05:14:40;2.00;;;1.80;;
37449;SDS011;23309;52.582;13.406;2024-01-07T05:17:07;2.50;;;1.88;;
37449;SDS011;23309;52.582;13.406;2024-01-07T05:19:34;3.50;;;2.17;;
37449;SDS011;23309;52.582;13.406;2024-01-07T05:21:59;2.90;;;1.87;;
37449;SDS011;23309;52.582;13.406;2024-01-07T05:24:25;4.20;;;2.43;;
37449;SDS011;23309;52.582;13.406;2024-01-07T05:26:51;2.07;;;1.73;;
37449;SDS011;23309;52.582;13.406;2024-01-07T05:29:16;3.03;;;1.90;;
37449;SDS011;23309;52.582;13.406;2024-01-07T05:31:42;3.83;;;2.20;;
37449;SDS011;23309;52.582;13.406;2024-01-07T05:34:07;3.43;;;2.20;;
37449;SDS011;23309;52.582;13.406;2024-01-07T05:36:34;2.75;;;2.03;;
37449;SDS011;23309;52.582;13.406;2024-01-07T05:39:00;2.10;;;1.57;;
37449;SDS011;23309;52.582;13.406;2024-01-07T05:41:25;4.73;;;2.10;;
37449;SDS011;23309;52.582;13.406;2024-01-07T05:43:51;2.40;;;1.70;;
37449;SDS011;23309;52.582;13.406;2024-01-07T05:46:17;2.80;;;1.80;;
37449;SDS011;23309;52.582;13.406;2024-01-07T05:48:43;2.50;;;1.80;;
37449;SDS011;23309;52.582;13.406;2024-01-07T05:51:10;3.58;;;2.38;;
37449;SDS011;23309;52.582;13.406;2024-01-07T05:53:36;3.50;;;2.00;;
37449;SDS011;23309;52.582;13.406;2024-01-07T05:56:01;3.07;;;1.97;;
37449;SDS011;23309;52.582;13.406;2024-01-07T05:58:29;2.10;;;1.65;;
37449;SDS011;23309;52.582;13.406;2024-01-07T06:00:56;2.42;;;2.00;;
37449;SDS011;23309;52.582;13.406;2024-01-07T06:03:25;1.65;;;1.55;;
37449;SDS011;23309;52.582;13.406;2024-01-07T06:05:52;2.10;;;1.85;;
37449;SDS011;23309;52.582;13.406;2024-01-07T06:08:19;3.70;;;2.33;;
37449;SDS011;23309;52.582;13.406;2024-01-07T06:10:45;3.10;;;1.80;;
37449;SDS011;23309;52.582;13.406;2024-01-07T06:13:11;2.50;;;1.80;;
37449;SDS011;23309;52.582;13.406;2024-01-07T06:15:37;2.33;;;1.80;;
37449;SDS011;23309;52.582;13.406;2024-01-07T06:18:02;2.43;;;1.97;;
37449;SDS011;23309;52.582;13.406;2024-01-07T06:20:28;2.93;;;2.43;;
37449;SDS011;23309;52.582;13.406;2024-01-07T06:22:54;3.50;;;2.23;;
37449;SDS011;23309;52.582;13.406;2024-01-07T06:25:20;2.80;;;1.97;;
37449;SDS011;23309;52.582;13.406;2024-01-07T06:27:45;3.73;;;2.27;;
37449;SDS011;23309;52.582;13.406;2024-01-07T06:30:11;3.60;;;2.27;;
37449;SDS011;23309;52.582;13.406;2024-01-07T06:32:39;3.78;;;2.22;;
37449;SDS011;23309;52.582;13.406;2024-01-07T06:35:05;3.23;;;2.37;;
37449;SDS011;23309;52.582;13.406;2024-01-07T06:37:30;4.40;;;2.57;;
37449;SDS011;23309;52.582;13.406;2024-01-07T06:39:56;3.50;;;2.20;;
37449;SDS011;23309;52.582;13.406;2024-01-07T06:42:23;4.10;;;2.55;;
37449;SDS011;23309;52.582;13.406;2024-01-07T06:44:49;3.30;;;2.20;;
37449;SDS011;23309;52.582;13.406;2024-01-07T06:47:14;3.40;;;2.40;;
37449;SDS011;23309;52.582;13.406;2024-01-07T06:49:40;3.17;;;2.10;;
37449;SDS011;23309;52.582;13.406;2024-01-07T06:52:06;3.63;;;2.07;;
37449;SDS011;23309;52.582;13.406;2024-01-07T06:54:31;3.33;;;2.23;;
37449;SDS011;23309;52.582;13.406;2024-01-07T06:56:58;2.97;;;2.38;;
37449;SDS011;23309;52.582;13.406;2024-01-07T06:59:23;2.47;;;2.03;;
37449;SDS011;23309;52.582;13.406;2024-01-07T07:01:49;3.43;;;2.40;;
37449;SDS011;23309;52.582;13.406;2024-01-07T07:04:14;3.83;;;2.40;;
37449;SDS011;23309;52.582;13.406;2024-01-07T07:06:40;2.50;;;2.03;;
37449;SDS011;23309;52.582;13.406;2024-01-07T07:09:05;3.10;;;1.97;;
37449;SDS011;23309;52.582;13.406;2024-01-07T07:11:32;3.47;;;2.13;;
37449;SDS011;23309;52.582;13.406;2024-01-07T07:13:57;2.90;;;2.05;;
37449;SDS011;23309;52.582;13.406;2024-01-07T07:16:23;4.03;;;2.03;;
37449;SDS011;23309;52.582;13.406;2024-01-07T07:18:49;2.40;;;2.03;;
37449;SDS011;23309;52.582;13.406;2024-01-07T07:21:14;2.80;;;2.20;;
37449;SDS011;23309;52.582;13.406;2024-01-07T07:23:40;2.27;;;1.93;;
37449;SDS011;23309;52.582;13.406;2024-01-07T07:26:05;3.77;;;2.37;;
37449;SDS011;23309;52.582;13.406;2024-01-07T07:28:31;2.97;;;2.15;;
37449;SDS011;23309;52.582;13.406;2024-01-07T07:30:57;3.87;;;2.10;;
37449;SDS011;23309;52.582;13.406;2024-01-07T07:33:23;2.80;;;1.90;;
37449;SDS011;23309;52.582;13.406;2024-01-07T07:35:49;2.53;;;1.80;;
37449;SDS011;23309;52.582;13.406;2024-01-07T07:38:14;2.73;;;2.03;;
37449;SDS011;23309;52.582;13.406;2024-01-07T07:40:40;3.40;;;1.80;;
37449;SDS011;23309;52.582;13.406;2024-01-07T07:43:07;2.28;;;1.73;;
37449;SDS011;23309;52.582;13.406;2024-01-07T07:45:33;3.05;;;2.08;;
37449;SDS011;23309;52.582;13.406;2024-01-07T07:47:58;2.60;;;1.97;;
37449;SDS011;23309;52.582;13.406;2024-01-07T07:50:24;3.10;;;2.00;;
37449;SDS011;23309;52.582;13.406;2024-01-07T07:52:49;3.10;;;2.03;;
37449;SDS011;23309;52.582;13.406;2024-01-07T07:55:15;2.40;;;1.80;;
37449;SDS011;23309;52.582;13.406;2024-01-07T07:57:40;2.40;;;2.20;;
37449;SDS011;23309;52.582;13.406;2024-01-07T08:00:06;3.10;;;2.03;;
37449;SDS011;23309;52.582;13.406;2024-01-07T08:02:32;3.72;;;2.13;;
37449;SDS011;23309;52.582;13.406;2024-01-07T08:04:58;4.13;;;2.80;;
37449;SDS011;23309;52.582;13.406;2024-01-07T08:07:24;6.57;;;2.67;;
37449;SDS011;23309;52.582;13.406;2024-01-07T08:09:50;3.35;;;2.00;;
37449;SDS011;23309;52.582;13.406;2024-01-07T08:12:16;2.65;;;1.98;;
37449;SDS011;23309;52.582;13.406;2024-01-07T08:14:41;2.60;;;2.30;;
37449;SDS011;23309;52.582;13.406;2024-01-07T08:17:07;2.80;;;2.13;;
37449;SDS011;23309;52.582;13.406;2024-01-07T08:19:33;2.50;;;2.03;;
37449;SDS011;23309;52.582;13.406;2024-01-07T08:21:58;2.70;;;2.10;;
37449;SDS011;23309;52.582;13.406;2024-01-07T08:24:24;2.27;;;2.07;;
37449;SDS011;23309;52.582;13.406;2024-01-07T08:26:49;3.50;;;2.30;;
37449;SDS011;23309;52.582;13.406;2024-01-07T08:29:15;5.17;;;3.47;;
37449;SDS011;23309;52.582;13.406;2024-01-07T08:31:41;4.97;;;3.10;;
37449;SDS011;23309;52.582;13.406;2024-01-07T08:34:07;4.03;;;2.97;;
37449;SDS011;23309;52.582;13.406;2024-01-07T08:36:33;3.70;;;2.30;;
37449;SDS011;23309;52.582;13.406;2024-01-07T08:38:58;5.70;;;2.90;;
37449;SDS011;23309;52.582;13.406;2024-01-07T08:41:25;3.55;;;2.60;;
37449;SDS011;23309;52.582;13.406;2024-01-07T08:43:51;4.10;;;2.67;;
37449;SDS011;23309;52.582;13.406;2024-01-07T08:46:16;4.20;;;2.97;;
37449;SDS011;23309;52.582;13.406;2024-01-07T08:48:42;4.60;;;3.27;;
37449;SDS011;23309;52.582;13.406;2024-01-07T08:51:07;4.60;;;3.00;;
37449;SDS011;23309;52.582;13.406;2024-01-07T08:53:36;5.23;;;2.60;;
37449;SDS011;23309;52.582;13.406;2024-01-07T08:56:01;3.87;;;2.70;;
37449;SDS011;23309;52.582;13.406;2024-01-07T08:58:27;3.70;;;2.90;;
37449;SDS011;23309;52.582;13.406;2024-01-07T09:00:52;4.70;;;2.97;;
37449;SDS011;23309;52.582;13.406;2024-01-07T09:03:18;4.03;;;3.03;;
37449;SDS011;23309;52.582;13.406;2024-01-07T09:05:43;4.67;;;2.90;;
37449;SDS011;23309;52.582;13.406;2024-01-07T09:08:10;3.90;;;2.47;;
37449;SDS011;23309;52.582;13.406;2024-01-07T09:10:36;4.20;;;3.07;;
37449;SDS011;23309;52.582;13.406;2024-01-07T09:13:02;6.00;;;2.60;;
37449;SDS011;23309;52.582;13.406;2024-01-07T09:15:29;4.97;;;2.80;;
37449;SDS011;23309;52.582;13.406;2024-01-07T09:17:54;4.53;;;3.07;;
37449;SDS011;23309;52.582;13.406;2024-01-07T09:20:20;5.47;;;3.40;;
37449;SDS011;23309;52.582;13.406;2024-01-07T09:22:45;3.77;;;2.90;;
37449;SDS011;23309;52.582;13.406;2024-01-07T09:25:11;11.23;;;6.03;;
37449;SDS011;23309;52.582;13.406;2024-01-07T09:27:36;4.87;;;3.10;;
37449;SDS011;23309;52.582;13.406;2024-01-07T09:30:02;5.20;;;3.23;;
37449;SDS011;23309;52.582;13.406;2024-01-07T09:32:28;5.50;;;3.37;;
37449;SDS011;23309;52.582;13.406;2024-01-07T09:34:54;4.57;;;3.33;;
37449;SDS011;23309;52.582;13.406;2024-01-07T09:37:19;6.83;;;3.80;;
37449;SDS011;23309;52.582;13.406;2024-01-07T09:39:45;7.77;;;3.73;;
37449;SDS011;23309;52.582;13.406;2024-01-07T09:42:14;4.90;;;3.10;;
37449;SDS011;23309;52.582;13.406;2024-01-07T09:44:41;6.83;;;3.80;;
37449;SDS011;23309;52.582;13.406;2024-01-07T09:47:10;6.27;;;3.67;;
37449;SDS011;23309;52.582;13.406;2024-01-07T09:49:36;7.40;;;3.70;;
37449;SDS011;23309;52.582;13.406;2024-01-07T09:52:03;6.30;;;4.00;;
37449;SDS011;23309;52.582;13.406;2024-01-07T09:54:30;7.73;;;3.50;;
37449;SDS011;23309;52.582;13.406;2024-01-07T09:57:01;4.73;;;3.13;;
37449;SDS011;23309;52.582;13.406;2024-01-07T09:59:28;6.07;;;3.23;;
37449;SDS011;23309;52.582;13.406;2024-01-07T10:01:54;6.47;;;4.13;;
37449;SDS011;23309;52.582;13.406;2024-01-07T10:04:20;6.30;;;3.53;;
37449;SDS011;23309;52.582;13.406;2024-01-07T10:06:46;6.07;;;3.70;;
37449;SDS011;23309;52.582;13.406;2024-01-07T10:09:13;5.03;;;3.60;;
37449;SDS011;23309;52.582;13.406;2024-01-07T10:11:40;5.50;;;3.70;;
37449;SDS011;23309;52.582;13.406;2024-01-07T10:14:05;11.03;;;4.73;;
37449;SDS011;23309;52.582;13.406;2024-01-07T10:16:31;5.03;;;3.13;;
37449;SDS011;23309;52.582;13.406;2024-01-07T10:18:58;6.10;;;3.50;;
37449;SDS011;23309;52.582;13.406;2024-01-07T10:21:23;4.70;;;3.07;;
37449;SDS011;23309;52.582;13.406;2024-01-07T10:23:49;5.40;;;3.50;;
37449;SDS011;23309;52.582;13.406;2024-01-07T10:26:15;5.83;;;3.40;;
37449;SDS011;23309;52.582;13.406;2024-01-07T10:28:41;5.30;;;3.70;;
37449;SDS011;23309;52.582;13.406;2024-01-07T10:31:08;5.70;;;3.70;;
37449;SDS011;23309;52.582;13.406;2024-01-07T10:33:34;13.93;;;3.80;;
37449;SDS011;23309;52.582;13.406;2024-01-07T10:36:03;5.83;;;3.53;;
37449;SDS011;23309;52.582;13.406;2024-01-07T10:38:31;9.00;;;3.93;;
37449;SDS011;23309;52.582;13.406;2024-01-07T10:41:01;6.77;;;3.80;;
37449;SDS011;23309;52.582;13.406;2024-01-07T10:43:30;4.50;;;3.33;;
37449;SDS011;23309;52.582;13.406;2024-01-07T10:45:56;6.83;;;3.73;;
37449;SDS011;23309;52.582;13.406;2024-01-07T10:48:30;5.10;;;3.50;;
37449;SDS011;23309;52.582;13.406;2024-01-07T10:50:57;6.50;;;4.10;;
37449;SDS011;23309;52.582;13.406;2024-01-07T10:53:28;6.70;;;3.93;;
37449;SDS011;23309;52.582;13.406;2024-01-07T10:56:05;5.33;;;3.60;;
37449;SDS011;23309;52.582;13.406;2024-01-07T10:58:36;5.27;;;3.40;;
37449;SDS011;23309;52.582;13.406;2024-01-07T11:01:02;6.73;;;3.67;;
37449;SDS011;23309;52.582;13.406;2024-01-07T11:04:04;7.33;;;3.20;;
37449;SDS011;23309;52.582;13.406;2024-01-07T11:12:04;7.13;;;3.57;;
37449;SDS011;23309;52.582;13.406;2024-01-07T11:14:37;4.87;;;3.67;;
37449;SDS011;23309;52.582;13.406;2024-01-07T11:17:07;7.23;;;3.47;;
37449;SDS011;23309;52.582;13.406;2024-01-07T11:19:37;4.60;;;3.10;;
37449;SDS011;23309;52.582;13.406;2024-01-07T11:24:56;5.20;;;3.30;;
37449;SDS011;23309;52.582;13.406;2024-01-07T11:27:23;4.90;;;3.23;;
37449;SDS011;23309;52.582;13.406;2024-01-07T11:29:56;3.80;;;2.80;;
37449;SDS011;23309;52.582;13.406;2024-01-07T11:32:22;2.90;;;2.60;;
37449;SDS011;23309;52.582;13.406;2024-01-07T11:34:51;4.43;;;3.00;;
37449;SDS011;23309;52.582;13.406;2024-01-07T11:37:18;3.90;;;2.90;;
37449;SDS011;23309;52.582;13.406;2024-01-07T11:39:45;3.67;;;2.60;;
37449;SDS011;23309;52.582;13.406;2024-01-07T11:42:11;4.57;;;3.40;;
37449;SDS011;23309;52.582;13.406;2024-01-07T11:44:37;6.50;;;3.03;;
37449;SDS011;23309;52.582;13.406;2024-01-07T11:47:06;5.23;;;3.30;;
37449;SDS011;23309;52.582;13.406;2024-01-07T11:49:32;6.73;;;3.17;;
37449;SDS011;23309;52.582;13.406;2024-01-07T11:51:58;5.60;;;3.40;;
37449;SDS011;23309;52.582;13.406;2024-01-07T11:54:24;4.90;;;3.00;;
37449;SDS011;23309;52.582;13.406;2024-01-07T11:56:49;5.40;;;3.27;;
37449;SDS011;23309;52.582;13.406;2024-01-07T11:59:15;3.27;;;2.73;;
37449;SDS011;23309;52.582;13.406;2024-01-07T12:01:40;3.63;;;2.50;;
